createdAt,value
2018-11-23T20:59:38.657Z,101286.70
2018-11-23T21:02:08.008Z,101290.13
2018-11-23T21:11:58.040Z,101262.22
2018-11-23T21:14:31.017Z,101255.70
2018-11-23T21:17:03.505Z,101273.11
2018-11-23T21:19:36.129Z,101279.86
2018-11-23T21:22:09.310Z,101284.36
2018-11-23T21:24:41.894Z,101274.30
2018-11-23T21:27:15.508Z,101275.13
2018-11-23T21:29:48.438Z,101275.66
2018-11-23T21:32:24.179Z,101268.41
2018-11-23T21:34:56.745Z,101263.11
2018-11-23T21:37:29.439Z,101268.80
2018-11-23T21:40:02.142Z,101271.11
2018-11-23T21:42:35.083Z,101263.01
2018-11-23T21:45:09.313Z,101269.55
2018-11-23T21:47:41.909Z,101281.34
2018-11-23T21:50:25.190Z,101281.46
2018-11-23T21:52:52.327Z,101275.84
2018-11-23T21:55:26.071Z,101272.38
2018-11-23T21:57:59.229Z,101274.25
2018-11-23T22:00:31.761Z,101273.39
2018-11-23T22:03:04.486Z,101272.22
2018-11-23T22:05:37.073Z,101273.60
2018-11-23T22:08:18.044Z,101280.51
2018-11-23T22:10:52.838Z,101275.27
2018-11-23T22:13:49.230Z,101273.30
2018-11-23T22:16:23.036Z,101269.21
2018-11-23T22:18:55.766Z,101268.64
2018-11-23T22:21:28.871Z,101273.94
2018-11-23T22:24:04.142Z,101270.02
2018-11-23T22:26:37.698Z,101268.64
2018-11-23T22:32:25.026Z,101256.84
2018-11-23T22:35:48.856Z,101251.36
2018-11-23T22:46:29.941Z,101236.81
2018-11-23T22:49:43.299Z,101234.77
2018-11-23T22:52:58.358Z,101229.59
2018-11-23T22:55:16.715Z,101235.95
2018-11-23T22:58:06.986Z,101232.27
2018-11-23T23:01:09.173Z,101225.48
2018-11-23T23:06:39.315Z,101223.14
2018-11-23T23:09:12.852Z,101225.24
2018-11-23T23:11:47.434Z,101229.05
2018-11-23T23:14:24.341Z,101228.36
2018-11-23T23:16:57.678Z,101224.88
2018-11-23T23:19:30.290Z,101224.16
2018-11-23T23:22:03.042Z,101221.58
2018-11-23T23:24:35.647Z,101221.01
2018-11-23T23:27:08.314Z,101221.50
2018-11-23T23:29:40.911Z,101220.65
2018-11-23T23:32:15.149Z,101214.03
2018-11-23T23:34:47.028Z,101216.88
2018-11-23T23:37:20.051Z,101215.67
2018-11-23T23:39:56.027Z,101210.63
2018-11-23T23:42:30.782Z,101209.69
2018-11-23T23:45:11.624Z,101206.22
2018-11-23T23:47:45.080Z,101201.07
2018-11-23T23:50:26.592Z,101200.05
2018-11-23T23:52:59.302Z,101197.42
2018-11-23T23:55:33.001Z,101191.45
2018-11-23T23:58:06.440Z,101186.98
